sensor_id;sensor_type;location;lat;lon;timestamp;P1;durP1;ratioP1;P2;durP2;ratioP2
20324;SDS011;10320;49.482;11.256;2024-02-16T00:00:18;5.50;;;4.43;;
20324;SDS011;10320;49.482;11.256;2024-02-16T00:02:44;5.43;;;4.53;;
20324;SDS011;10320;49.482;11.256;2024-02-16T00:05:11;4.40;;;4.00;;
20324;SDS011;10320;49.482;11.256;2024-02-16T00:07:37;5.00;;;4.23;;
20324;SDS011;10320;49.482;11.256;2024-02-16T00:10:04;5.50;;;4.20;;
20324;SDS011;10320;49.482;11.256;2024-02-16T00:12:30;5.03;;;3.80;;
20324;SDS011;10320;49.482;11.256;2024-02-16T00:14:57;4.30;;;3.90;;
20324;SDS011;10320;49.482;11.256;2024-02-16T00:17:23;5.40;;;3.77;;
20324;SDS011;10320;49.482;11.256;2024-02-16T00:19:51;4.40;;;3.90;;
20324;SDS011;10320;49.482;11.256;2024-02-16T00:22:17;5.07;;;3.97;;
20324;SDS011;10320;49.482;11.256;2024-02-16T00:24:43;4.70;;;4.17;;
20324;SDS011;10320;49.482;11.256;2024-02-16T00:27:10;5.00;;;3.97;;
20324;SDS011;10320;49.482;11.256;2024-02-16T00:29:36;6.57;;;4.43;;
20324;SDS011;10320;49.482;11.256;2024-02-16T00:32:03;6.10;;;3.90;;
20324;SDS011;10320;49.482;11.256;2024-02-16T00:34:31;6.77;;;3.87;;
20324;SDS011;10320;49.482;11.256;2024-02-16T00:36:57;5.73;;;3.90;;
20324;SDS011;10320;49.482;11.256;2024-02-16T00:39:23;5.53;;;4.73;;
20324;SDS011;10320;49.482;11.256;2024-02-16T00:41:50;4.60;;;4.10;;
20324;SDS011;10320;49.482;11.256;2024-02-16T00:44:16;6.33;;;4.37;;
20324;SDS011;10320;49.482;11.256;2024-02-16T00:46:42;6.53;;;5.23;;
20324;SDS011;10320;49.482;11.256;2024-02-16T00:49:08;8.50;;;4.67;;
20324;SDS011;10320;49.482;11.256;2024-02-16T00:51:38;6.87;;;5.20;;
20324;SDS011;10320;49.482;11.256;2024-02-16T00:54:04;6.37;;;5.53;;
20324;SDS011;10320;49.482;11.256;2024-02-16T00:56:30;6.70;;;6.00;;
20324;SDS011;10320;49.482;11.256;2024-02-16T00:58:56;6.80;;;5.87;;
20324;SDS011;10320;49.482;11.256;2024-02-16T01:01:22;5.30;;;4.17;;
20324;SDS011;10320;49.482;11.256;2024-02-16T01:03:50;7.47;;;4.90;;
20324;SDS011;10320;49.482;11.256;2024-02-16T01:06:19;5.43;;;4.93;;
20324;SDS011;10320;49.482;11.256;2024-02-16T01:08:45;7.27;;;5.13;;
20324;SDS011;10320;49.482;11.256;2024-02-16T01:11:11;7.13;;;5.43;;
20324;SDS011;10320;49.482;11.256;2024-02-16T01:13:38;5.80;;;5.00;;
20324;SDS011;10320;49.482;11.256;2024-02-16T01:16:04;6.90;;;5.37;;
20324;SDS011;10320;49.482;11.256;2024-02-16T01:18:30;9.00;;;5.93;;
20324;SDS011;10320;49.482;11.256;2024-02-16T01:20:57;6.37;;;5.50;;
20324;SDS011;10320;49.482;11.256;2024-02-16T01:23:23;6.50;;;5.00;;
20324;SDS011;10320;49.482;11.256;2024-02-16T01:25:49;6.23;;;4.67;;
20324;SDS011;10320;49.482;11.256;2024-02-16T01:28:16;5.83;;;4.47;;
20324;SDS011;10320;49.482;11.256;2024-02-16T01:30:42;7.27;;;4.40;;
20324;SDS011;10320;49.482;11.256;2024-02-16T01:33:08;5.00;;;4.23;;
20324;SDS011;10320;49.482;11.256;2024-02-16T01:35:34;4.83;;;4.33;;
20324;SDS011;10320;49.482;11.256;2024-02-16T01:38:00;5.43;;;4.57;;
20324;SDS011;10320;49.482;11.256;2024-02-16T01:40:26;5.00;;;4.47;;
20324;SDS011;10320;49.482;11.256;2024-02-16T01:42:52;4.63;;;4.10;;
20324;SDS011;10320;49.482;11.256;2024-02-16T01:45:19;6.67;;;4.30;;
20324;SDS011;10320;49.482;11.256;2024-02-16T01:47:45;7.77;;;4.03;;
20324;SDS011;10320;49.482;11.256;2024-02-16T01:50:12;5.40;;;4.50;;
20324;SDS011;10320;49.482;11.256;2024-02-16T01:52:39;4.60;;;4.17;;
20324;SDS011;10320;49.482;11.256;2024-02-16T01:55:06;6.47;;;4.57;;
20324;SDS011;10320;49.482;11.256;2024-02-16T01:57:35;6.00;;;4.30;;
20324;SDS011;10320;49.482;11.256;2024-02-16T02:00:01;4.47;;;4.07;;
20324;SDS011;10320;49.482;11.256;2024-02-16T02:02:28;4.30;;;3.90;;
20324;SDS011;10320;49.482;11.256;2024-02-16T02:04:54;4.23;;;3.83;;
20324;SDS011;10320;49.482;11.256;2024-02-16T02:07:24;6.67;;;3.80;;
20324;SDS011;10320;49.482;11.256;2024-02-16T02:09:51;4.80;;;4.00;;
20324;SDS011;10320;49.482;11.256;2024-02-16T02:12:17;5.73;;;3.80;;
20324;SDS011;10320;49.482;11.256;2024-02-16T02:14:44;4.73;;;3.70;;
20324;SDS011;10320;49.482;11.256;2024-02-16T02:17:11;5.60;;;3.33;;
20324;SDS011;10320;49.482;11.256;2024-02-16T02:19:37;5.80;;;3.47;;
20324;SDS011;10320;49.482;11.256;2024-02-16T02:22:04;4.87;;;3.67;;
20324;SDS011;10320;49.482;11.256;2024-02-16T02:24:30;4.20;;;3.80;;
20324;SDS011;10320;49.482;11.256;2024-02-16T02:26:56;5.13;;;3.80;;
20324;SDS011;10320;49.482;11.256;2024-02-16T02:29:23;4.60;;;3.90;;
20324;SDS011;10320;49.482;11.256;2024-02-16T02:31:49;5.37;;;3.47;;
20324;SDS011;10320;49.482;11.256;2024-02-16T02:34:15;5.53;;;3.80;;
20324;SDS011;10320;49.482;11.256;2024-02-16T02:36:41;4.93;;;3.70;;
20324;SDS011;10320;49.482;11.256;2024-02-16T02:39:07;4.57;;;3.97;;
20324;SDS011;10320;49.482;11.256;2024-02-16T02:41:33;6.20;;;3.90;;
20324;SDS011;10320;49.482;11.256;2024-02-16T02:43:59;5.13;;;3.73;;
20324;SDS011;10320;49.482;11.256;2024-02-16T02:46:25;4.00;;;3.50;;
20324;SDS011;10320;49.482;11.256;2024-02-16T02:48:52;3.87;;;3.43;;
20324;SDS011;10320;49.482;11.256;2024-02-16T02:51:18;6.10;;;3.73;;
20324;SDS011;10320;49.482;11.256;2024-02-16T02:53:44;3.73;;;3.33;;
20324;SDS011;10320;49.482;11.256;2024-02-16T02:56:11;5.13;;;3.53;;
20324;SDS011;10320;49.482;11.256;2024-02-16T02:58:38;4.33;;;3.43;;
20324;SDS011;10320;49.482;11.256;2024-02-16T03:01:04;3.87;;;3.33;;
20324;SDS011;10320;49.482;11.256;2024-02-16T03:03:32;4.00;;;3.30;;
20324;SDS011;10320;49.482;11.256;2024-02-16T03:05:59;5.60;;;3.40;;
20324;SDS011;10320;49.482;11.256;2024-02-16T03:08:25;6.07;;;3.47;;
20324;SDS011;10320;49.482;11.256;2024-02-16T03:10:51;4.47;;;3.37;;
20324;SDS011;10320;49.482;11.256;2024-02-16T03:13:17;4.20;;;3.57;;
20324;SDS011;10320;49.482;11.256;2024-02-16T03:15:44;7.37;;;3.80;;
20324;SDS011;10320;49.482;11.256;2024-02-16T03:18:10;4.93;;;3.70;;
20324;SDS011;10320;49.482;11.256;2024-02-16T03:20:36;4.13;;;3.33;;
20324;SDS011;10320;49.482;11.256;2024-02-16T03:23:02;3.47;;;3.17;;
20324;SDS011;10320;49.482;11.256;2024-02-16T03:25:29;5.17;;;3.77;;
20324;SDS011;10320;49.482;11.256;2024-02-16T03:27:55;3.53;;;3.23;;
20324;SDS011;10320;49.482;11.256;2024-02-16T03:30:21;5.27;;;3.33;;
20324;SDS011;10320;49.482;11.256;2024-02-16T03:32:48;4.33;;;3.30;;
20324;SDS011;10320;49.482;11.256;2024-02-16T03:35:14;3.90;;;3.50;;
20324;SDS011;10320;49.482;11.256;2024-02-16T03:37:40;3.97;;;3.30;;
20324;SDS011;10320;49.482;11.256;2024-02-16T03:40:07;3.43;;;2.70;;
20324;SDS011;10320;49.482;11.256;2024-02-16T03:42:34;4.23;;;3.40;;
20324;SDS011;10320;49.482;11.256;2024-02-16T03:45:01;3.93;;;3.17;;
20324;SDS011;10320;49.482;11.256;2024-02-16T03:47:27;4.00;;;3.00;;
20324;SDS011;10320;49.482;11.256;2024-02-16T03:49:53;3.30;;;3.00;;
20324;SDS011;10320;49.482;11.256;2024-02-16T03:52:19;3.40;;;3.10;;
20324;SDS011;10320;49.482;11.256;2024-02-16T03:54:45;3.57;;;3.23;;
20324;SDS011;10320;49.482;11.256;2024-02-16T03:57:15;3.67;;;3.30;;
20324;SDS011;10320;49.482;11.256;2024-02-16T03:59:44;3.20;;;2.90;;
20324;SDS011;10320;49.482;11.256;2024-02-16T04:02:11;4.17;;;3.00;;
20324;SDS011;10320;49.482;11.256;2024-02-16T04:04:40;4.57;;;2.80;;
20324;SDS011;10320;49.482;11.256;2024-02-16T04:07:06;3.43;;;2.80;;
20324;SDS011;10320;49.482;11.256;2024-02-16T04:09:33;3.00;;;2.70;;
20324;SDS011;10320;49.482;11.256;2024-02-16T04:11:59;3.13;;;2.77;;
20324;SDS011;10320;49.482;11.256;2024-02-16T04:14:26;3.83;;;2.97;;
20324;SDS011;10320;49.482;11.256;2024-02-16T04:16:52;3.63;;;2.90;;
20324;SDS011;10320;49.482;11.256;2024-02-16T04:19:18;3.10;;;2.80;;
20324;SDS011;10320;49.482;11.256;2024-02-16T04:21:44;3.70;;;2.90;;
20324;SDS011;10320;49.482;11.256;2024-02-16T04:24:10;3.00;;;2.70;;
20324;SDS011;10320;49.482;11.256;2024-02-16T04:26:36;2.77;;;2.40;;
20324;SDS011;10320;49.482;11.256;2024-02-16T04:29:03;3.60;;;2.63;;
20324;SDS011;10320;49.482;11.256;2024-02-16T04:31:32;3.33;;;2.77;;
20324;SDS011;10320;49.482;11.256;2024-02-16T04:33:58;4.93;;;2.50;;
20324;SDS011;10320;49.482;11.256;2024-02-16T04:36:24;4.47;;;3.10;;
20324;SDS011;10320;49.482;11.256;2024-02-16T04:38:50;3.87;;;3.00;;
20324;SDS011;10320;49.482;11.256;2024-02-16T04:41:16;4.67;;;3.50;;
20324;SDS011;10320;49.482;11.256;2024-02-16T04:43:42;3.80;;;2.97;;
20324;SDS011;10320;49.482;11.256;2024-02-16T04:46:13;4.57;;;2.80;;
20324;SDS011;10320;49.482;11.256;2024-02-16T04:48:39;3.93;;;3.03;;
20324;SDS011;10320;49.482;11.256;2024-02-16T04:51:05;4.77;;;3.00;;
20324;SDS011;10320;49.482;11.256;2024-02-16T04:53:31;3.80;;;3.20;;
20324;SDS011;10320;49.482;11.256;2024-02-16T04:55:57;4.67;;;3.47;;
20324;SDS011;10320;49.482;11.256;2024-02-16T04:58:23;3.87;;;3.40;;
20324;SDS011;10320;49.482;11.256;2024-02-16T05:00:49;4.30;;;3.00;;
20324;SDS011;10320;49.482;11.256;2024-02-16T05:03:15;2.73;;;2.53;;
20324;SDS011;10320;49.482;11.256;2024-02-16T05:05:41;3.73;;;2.97;;
20324;SDS011;10320;49.482;11.256;2024-02-16T05:08:07;3.63;;;2.93;;
20324;SDS011;10320;49.482;11.256;2024-02-16T05:10:33;3.30;;;2.83;;
20324;SDS011;10320;49.482;11.256;2024-02-16T05:12:59;3.50;;;2.90;;
20324;SDS011;10320;49.482;11.256;2024-02-16T05:15:25;3.13;;;2.73;;
20324;SDS011;10320;49.482;11.256;2024-02-16T05:17:51;5.47;;;3.80;;
20324;SDS011;10320;49.482;11.256;2024-02-16T05:20:17;5.90;;;3.30;;
20324;SDS011;10320;49.482;11.256;2024-02-16T05:22:44;3.53;;;3.00;;
20324;SDS011;10320;49.482;11.256;2024-02-16T05:25:17;5.27;;;3.30;;
20324;SDS011;10320;49.482;11.256;2024-02-16T05:27:44;4.57;;;3.17;;
20324;SDS011;10320;49.482;11.256;2024-02-16T05:30:10;3.50;;;3.20;;
20324;SDS011;10320;49.482;11.256;2024-02-16T05:32:38;4.47;;;3.43;;
20324;SDS011;10320;49.482;11.256;2024-02-16T05:35:04;4.10;;;3.37;;
20324;SDS011;10320;49.482;11.256;2024-02-16T05:37:46;5.40;;;3.67;;
20324;SDS011;10320;49.482;11.256;2024-02-16T05:40:14;4.33;;;3.80;;
20324;SDS011;10320;49.482;11.256;2024-02-16T05:42:52;4.37;;;3.47;;
20324;SDS011;10320;49.482;11.256;2024-02-16T05:45:19;5.63;;;4.03;;
20324;SDS011;10320;49.482;11.256;2024-02-16T05:47:46;5.60;;;4.00;;
20324;SDS011;10320;49.482;11.256;2024-02-16T05:50:12;4.47;;;3.80;;
20324;SDS011;10320;49.482;11.256;2024-02-16T05:52:39;4.07;;;3.67;;
20324;SDS011;10320;49.482;11.256;2024-02-16T05:55:06;4.97;;;3.60;;
20324;SDS011;10320;49.482;11.256;2024-02-16T05:57:32;4.93;;;3.83;;
20324;SDS011;10320;49.482;11.256;2024-02-16T05:59:58;4.67;;;4.10;;
20324;SDS011;10320;49.482;11.256;2024-02-16T06:02:24;5.63;;;3.90;;
20324;SDS011;10320;49.482;11.256;2024-02-16T06:04:51;5.40;;;4.67;;
20324;SDS011;10320;49.482;11.256;2024-02-16T06:07:17;5.00;;;4.10;;
20324;SDS011;10320;49.482;11.256;2024-02-16T06:09:43;5.60;;;4.70;;
20324;SDS011;10320;49.482;11.256;2024-02-16T06:12:09;5.33;;;4.53;;
20324;SDS011;10320;49.482;11.256;2024-02-16T06:14:36;4.83;;;4.30;;
20324;SDS011;10320;49.482;11.256;2024-02-16T06:17:02;6.03;;;4.53;;
20324;SDS011;10320;49.482;11.256;2024-02-16T06:19:29;5.20;;;4.00;;
20324;SDS011;10320;49.482;11.256;2024-02-16T06:21:55;6.03;;;4.27;;
20324;SDS011;10320;49.482;11.256;2024-02-16T06:24:24;5.63;;;4.57;;
20324;SDS011;10320;49.482;11.256;2024-02-16T06:26:50;6.37;;;4.07;;
20324;SDS011;10320;49.482;11.256;2024-02-16T06:29:17;4.63;;;4.10;;
20324;SDS011;10320;49.482;11.256;2024-02-16T06:31:44;4.57;;;4.03;;
20324;SDS011;10320;49.482;11.256;2024-02-16T06:34:11;4.43;;;3.43;;
20324;SDS011;10320;49.482;11.256;2024-02-16T06:36:37;4.13;;;3.37;;
20324;SDS011;10320;49.482;11.256;2024-02-16T06:39:03;3.40;;;3.10;;
20324;SDS011;10320;49.482;11.256;2024-02-16T06:41:29;3.50;;;3.20;;
20324;SDS011;10320;49.482;11.256;2024-02-16T06:43:55;4.27;;;3.57;;
20324;SDS011;10320;49.482;11.256;2024-02-16T06:46:21;4.60;;;3.50;;
20324;SDS011;10320;49.482;11.256;2024-02-16T06:48:47;3.93;;;3.20;;
20324;SDS011;10320;49.482;11.256;2024-02-16T06:51:13;4.40;;;3.63;;
20324;SDS011;10320;49.482;11.256;2024-02-16T06:53:39;6.13;;;4.67;;
20324;SDS011;10320;49.482;11.256;2024-02-16T06:56:05;5.73;;;5.00;;
20324;SDS011;10320;49.482;11.256;2024-02-16T06:58:31;6.43;;;4.70;;
20324;SDS011;10320;49.482;11.256;2024-02-16T07:00:57;6.87;;;4.90;;
20324;SDS011;10320;49.482;11.256;2024-02-16T07:03:28;7.20;;;5.27;;
20324;SDS011;10320;49.482;11.256;2024-02-16T07:05:54;6.23;;;5.00;;
20324;SDS011;10320;49.482;11.256;2024-02-16T07:08:20;6.57;;;4.60;;
20324;SDS011;10320;49.482;11.256;2024-02-16T07:10:49;6.60;;;5.23;;
20324;SDS011;10320;49.482;11.256;2024-02-16T07:13:16;7.60;;;5.23;;
20324;SDS011;10320;49.482;11.256;2024-02-16T07:15:42;7.33;;;5.30;;
20324;SDS011;10320;49.482;11.256;2024-02-16T07:18:08;6.67;;;5.30;;
20324;SDS011;10320;49.482;11.256;2024-02-16T07:20:34;5.93;;;5.33;;
20324;SDS011;10320;49.482;11.256;2024-02-16T07:23:01;6.17;;;5.57;;
20324;SDS011;10320;49.482;11.256;2024-02-16T07:25:27;5.97;;;5.33;;
20324;SDS011;10320;49.482;11.256;2024-02-16T07:27:53;7.57;;;5.67;;
20324;SDS011;10320;49.482;11.256;2024-02-16T07:30:19;6.77;;;5.70;;
20324;SDS011;10320;49.482;11.256;2024-02-16T07:32:49;7.63;;;5.73;;
20324;SDS011;10320;49.482;11.256;2024-02-16T07:35:15;6.77;;;5.47;;
20324;SDS011;10320;49.482;11.256;2024-02-16T07:37:41;6.57;;;5.80;;
20324;SDS011;10320;49.482;11.256;2024-02-16T07:40:08;7.00;;;5.37;;
20324;SDS011;10320;49.482;11.256;2024-02-16T07:42:38;7.07;;;5.17;;
20324;SDS011;10320;49.482;11.256;2024-02-16T07:45:05;7.43;;;6.07;;
20324;SDS011;10320;49.482;11.256;2024-02-16T07:47:31;8.47;;;6.20;;
20324;SDS011;10320;49.482;11.256;2024-02-16T07:49:57;7.90;;;6.30;;
20324;SDS011;10320;49.482;11.256;2024-02-16T07:52:23;7.63;;;6.67;;
20324;SDS011;10320;49.482;11.256;2024-02-16T07:54:49;8.33;;;7.23;;
20324;SDS011;10320;49.482;11.256;2024-02-16T07:57:16;9.53;;;8.20;;
20324;SDS011;10320;49.482;11.256;2024-02-16T07:59:42;16.60;;;13.60;;
20324;SDS011;10320;49.482;11.256;2024-02-16T08:02:15;9.90;;;7.60;;
20324;SDS011;10320;49.482;11.256;2024-02-16T08:04:42;8.90;;;7.93;;
20324;SDS011;10320;49.482;11.256;2024-02-16T08:07:09;12.77;;;10.80;;
20324;SDS011;10320;49.482;11.256;2024-02-16T08:09:35;21.57;;;17.97;;
20324;SDS011;10320;49.482;11.256;2024-02-16T08:12:01;16.40;;;12.23;;
20324;SDS011;10320;49.482;11.256;2024-02-16T08:14:30;10.33;;;7.60;;
20324;SDS011;10320;49.482;11.256;2024-02-16T08:16:57;7.07;;;5.97;;
20324;SDS011;10320;49.482;11.256;2024-02-16T08:19:23;9.07;;;7.43;;
20324;SDS011;10320;49.482;11.256;2024-02-16T08:21:57;7.97;;;6.50;;
20324;SDS011;10320;49.482;11.256;2024-02-16T08:24:23;7.63;;;6.77;;
20324;SDS011;10320;49.482;11.256;2024-02-16T08:26:49;12.40;;;11.10;;
20324;SDS011;10320;49.482;11.256;2024-02-16T08:29:15;10.17;;;9.07;;
20324;SDS011;10320;49.482;11.256;2024-02-16T08:31:41;11.07;;;9.00;;
20324;SDS011;10320;49.482;11.256;2024-02-16T08:34:09;9.53;;;7.80;;
20324;SDS011;10320;49.482;11.256;2024-02-16T08:36:35;10.73;;;8.57;;
20324;SDS011;10320;49.482;11.256;2024-02-16T08:39:02;9.17;;;8.10;;
20324;SDS011;10320;49.482;11.256;2024-02-16T08:41:28;9.57;;;8.50;;
20324;SDS011;10320;49.482;11.256;2024-02-16T08:43:55;9.57;;;8.43;;
20324;SDS011;10320;49.482;11.256;2024-02-16T08:46:22;9.30;;;7.80;;
20324;SDS011;10320;49.482;11.256;2024-02-16T08:48:48;10.00;;;8.37;;
20324;SDS011;10320;49.482;11.256;2024-02-16T08:51:14;8.43;;;7.60;;
20324;SDS011;10320;49.482;11.256;2024-02-16T08:53:40;7.67;;;6.97;;
20324;SDS011;10320;49.482;11.256;2024-02-16T08:56:09;7.93;;;7.13;;
20324;SDS011;10320;49.482;11.256;2024-02-16T08:58:39;7.53;;;6.70;;
20324;SDS011;10320;49.482;11.256;2024-02-16T09:01:05;9.40;;;6.83;;
20324;SDS011;10320;49.482;11.256;2024-02-16T09:03:31;7.70;;;6.70;;
20324;SDS011;10320;49.482;11.256;2024-02-16T09:06:02;8.33;;;6.93;;
20324;SDS011;10320;49.482;11.256;2024-02-16T09:08:28;7.77;;;6.07;;
20324;SDS011;10320;49.482;11.256;2024-02-16T09:10:58;7.07;;;6.37;;
20324;SDS011;10320;49.482;11.256;2024-02-16T09:13:24;7.33;;;6.00;;
20324;SDS011;10320;49.482;11.256;2024-02-16T09:15:50;7.43;;;6.00;;
20324;SDS011;10320;49.482;11.256;2024-02-16T09:18:19;10.33;;;6.30;;
20324;SDS011;10320;49.482;11.256;2024-02-16T09:20:45;7.57;;;5.93;;
20324;SDS011;10320;49.482;11.256;2024-02-16T09:23:11;6.50;;;5.87;;
20324;SDS011;10320;49.482;11.256;2024-02-16T09:25:40;6.63;;;5.80;;
20324;SDS011;10320;49.482;11.256;2024-02-16T09:28:06;7.63;;;5.87;;
20324;SDS011;10320;49.482;11.256;2024-02-16T09:30:32;6.60;;;5.50;;
20324;SDS011;10320;49.482;11.256;2024-02-16T09:32:58;6.80;;;5.40;;
20324;SDS011;10320;49.482;11.256;2024-02-16T09:35:24;7.03;;;6.17;;
20324;SDS011;10320;49.482;11.256;2024-02-16T09:37:50;6.00;;;5.10;;
20324;SDS011;10320;49.482;11.256;2024-02-16T09:40:16;6.03;;;5.40;;
20324;SDS011;10320;49.482;11.256;2024-02-16T09:42:47;6.20;;;5.17;;
20324;SDS011;10320;49.482;11.256;2024-02-16T09:45:14;6.07;;;5.47;;
20324;SDS011;10320;49.482;11.256;2024-02-16T09:47:46;5.43;;;4.93;;
20324;SDS011;10320;49.482;11.256;2024-02-16T09:50:12;5.60;;;5.00;;
20324;SDS011;10320;49.482;11.256;2024-02-16T09:52:39;6.07;;;5.30;;
20324;SDS011;10320;49.482;11.256;2024-02-16T09:55:07;6.23;;;5.10;;
20324;SDS011;10320;49.482;11.256;2024-02-16T09:57:35;5.60;;;4.97;;
20324;SDS011;10320;49.482;11.256;2024-02-16T10:00:02;5.10;;;4.60;;
20324;SDS011;10320;49.482;11.256;2024-02-16T10:02:38;5.37;;;4.87;;
20324;SDS011;10320;49.482;11.256;2024-02-16T10:05:16;5.37;;;4.80;;
20324;SDS011;10320;49.482;11.256;2024-02-16T10:07:43;6.20;;;4.70;;
20324;SDS011;10320;49.482;11.256;2024-02-16T10:10:28;5.47;;;4.60;;
20324;SDS011;10320;49.482;11.256;2024-02-16T10:15:29;5.47;;;4.50;;
20324;SDS011;10320;49.482;11.256;2024-02-16T10:20:24;5.20;;;4.40;;
20324;SDS011;10320;49.482;11.256;2024-02-16T10:22:50;5.67;;;4.43;;
20324;SDS011;10320;49.482;11.256;2024-02-16T10:25:27;5.67;;;4.63;;
20324;SDS011;10320;49.482;11.256;2024-02-16T10:27:54;4.80;;;4.20;;
20324;SDS011;10320;49.482;11.256;2024-02-16T10:30:20;5.10;;;4.43;;
20324;SDS011;10320;49.482;11.256;2024-02-16T10:32:48;5.70;;;4.13;;
20324;SDS011;10320;49.482;11.256;2024-02-16T10:35:14;4.60;;;4.20;;
20324;SDS011;10320;49.482;11.256;2024-02-16T10:37:42;5.67;;;4.10;;
20324;SDS011;10320;49.482;11.256;2024-02-16T10:40:09;5.50;;;4.37;;
20324;SDS011;10320;49.482;11.256;2024-02-16T10:42:38;4.30;;;3.90;;
20324;SDS011;10320;49.482;11.256;2024-02-16T10:45:05;4.63;;;3.83;;
20324;SDS011;10320;49.482;11.256;2024-02-16T10:47:31;4.80;;;4.40;;
20324;SDS011;10320;49.482;11.256;2024-02-16T10:49:57;4.50;;;4.10;;
20324;SDS011;10320;49.482;11.256;2024-02-16T10:52:23;4.70;;;4.30;;
20324;SDS011;10320;49.482;11.256;2024-02-16T10:54:50;5.10;;;4.47;;
20324;SDS011;10320;49.482;11.256;2024-02-16T10:57:16;5.73;;;4.70;;
20324;SDS011;10320;49.482;11.256;2024-02-16T10:59:43;6.37;;;4.37;;
20324;SDS011;10320;49.482;11.256;2024-02-16T11:02:10;4.73;;;4.30;;
20324;SDS011;10320;49.482;11.256;2024-02-16T11:04:37;4.63;;;4.13;;
20324;SDS011;10320;49.482;11.256;2024-02-16T11:07:10;4.87;;;4.30;;
20324;SDS011;10320;49.482;11.256;2024-02-16T11:09:39;5.30;;;4.80;;
20324;SDS011;10320;49.482;11.256;2024-02-16T11:12:06;5.23;;;3.90;;
20324;SDS011;10320;49.482;11.256;2024-02-16T11:14:56;4.67;;;4.17;;
20324;SDS011;10320;49.482;11.256;2024-02-16T11:17:22;4.47;;;4.07;;
20324;SDS011;10320;49.482;11.256;2024-02-16T11:19:49;4.90;;;4.07;;
20324;SDS011;10320;49.482;11.256;2024-02-16T11:22:19;4.47;;;4.03;;
20324;SDS011;10320;49.482;11.256;2024-02-16T11:24:48;4.50;;;4.10;;
20324;SDS011;10320;49.482;11.256;2024-02-16T11:27:15;5.70;;;4.33;;
20324;SDS011;10320;49.482;11.256;2024-02-16T11:29:44;4.63;;;4.20;;
20324;SDS011;10320;49.482;11.256;2024-02-16T11:32:10;4.33;;;3.87;;
20324;SDS011;10320;49.482;11.256;2024-02-16T11:34:36;5.67;;;4.10;;
20324;SDS011;10320;49.482;11.256;2024-02-16T11:37:03;4.53;;;4.00;;
20324;SDS011;10320;49.482;11.256;2024-02-16T11:39:32;3.73;;;3.37;;
20324;SDS011;10320;49.482;11.256;2024-02-16T11:42:11;4.37;;;3.70;;
20324;SDS011;10320;49.482;11.256;2024-02-16T11:44:38;5.43;;;3.93;;
20324;SDS011;10320;49.482;11.256;2024-02-16T11:47:08;4.67;;;3.73;;
20324;SDS011;10320;49.482;11.256;2024-02-16T11:49:37;4.27;;;3.60;;
20324;SDS011;10320;49.482;11.256;2024-02-16T11:52:09;4.57;;;3.90;;
20324;SDS011;10320;49.482;11.256;2024-02-16T11:54:35;4.00;;;3.67;;
20324;SDS011;10320;49.482;11.256;2024-02-16T11:57:02;3.90;;;3.50;;
20324;SDS011;10320;49.482;11.256;2024-02-16T11:59:28;4.10;;;3.70;;
20324;SDS011;10320;49.482;11.256;2024-02-16T12:01:57;5.70;;;3.17;;
20324;SDS011;10320;49.482;11.256;2024-02-16T12:04:24;3.67;;;3.27;;
20324;SDS011;10320;49.482;11.256;2024-02-16T12:06:57;3.63;;;3.33;;
20324;SDS011;10320;49.482;11.256;2024-02-16T12:09:23;3.70;;;3.40;;
20324;SDS011;10320;49.482;11.256;2024-02-16T12:11:50;4.00;;;3.60;;
20324;SDS011;10320;49.482;11.256;2024-02-16T12:14:16;4.70;;;3.30;;
20324;SDS011;10320;49.482;11.256;2024-02-16T12:16:46;5.73;;;3.67;;
20324;SDS011;10320;49.482;11.256;2024-02-16T12:19:12;4.03;;;3.60;;
20324;SDS011;10320;49.482;11.256;2024-02-16T12:21:38;4.10;;;3.70;;
20324;SDS011;10320;49.482;11.256;2024-02-16T12:24:05;3.93;;;3.60;;
20324;SDS011;10320;49.482;11.256;2024-02-16T12:26:31;4.30;;;3.90;;
20324;SDS011;10320;49.482;11.256;2024-02-16T12:28:57;4.20;;;3.60;;
20324;SDS011;10320;49.482;11.256;2024-02-16T12:31:23;4.23;;;3.80;;
20324;SDS011;10320;49.482;11.256;2024-02-16T12:33:51;5.50;;;3.70;;
20324;SDS011;10320;49.482;11.256;2024-02-16T12:36:17;4.37;;;3.80;;
20324;SDS011;10320;49.482;11.256;2024-02-16T12:38:43;4.50;;;3.23;;
20324;SDS011;10320;49.482;11.256;2024-02-16T12:41:09;4.20;;;3.80;;
20324;SDS011;10320;49.482;11.256;2024-02-16T12:43:35;5.70;;;3.77;;
20324;SDS011;10320;49.482;11.256;2024-02-16T12:46:01;5.10;;;3.90;;
20324;SDS011;10320;49.482;11.256;2024-02-16T12:48:29;4.63;;;4.10;;
20324;SDS011;10320;49.482;11.256;2024-02-16T12:50:55;4.30;;;3.90;;
20324;SDS011;10320;49.482;11.256;2024-02-16T12:53:22;4.50;;;4.10;;
20324;SDS011;10320;49.482;11.256;2024-02-16T12:55:50;3.90;;;3.60;;
20324;SDS011;10320;49.482;11.256;2024-02-16T12:58:16;4.60;;;4.07;;
20324;SDS011;10320;49.482;11.256;2024-02-16T13:00:42;5.07;;;3.90;;
20324;SDS011;10320;49.482;11.256;2024-02-16T13:03:08;4.03;;;3.57;;
20324;SDS011;10320;49.482;11.256;2024-02-16T13:05:34;4.13;;;3.73;;
20324;SDS011;10320;49.482;11.256;2024-02-16T13:08:00;3.90;;;3.60;;
20324;SDS011;10320;49.482;11.256;2024-02-16T13:10:26;4.57;;;3.50;;
20324;SDS011;10320;49.482;11.256;2024-02-16T13:12:52;5.13;;;3.83;;
20324;SDS011;10320;49.482;11.256;2024-02-16T13:15:18;4.37;;;3.70;;
20324;SDS011;10320;49.482;11.256;2024-02-16T13:17:44;4.23;;;3.83;;
20324;SDS011;10320;49.482;11.256;2024-02-16T13:20:10;4.37;;;3.97;;
20324;SDS011;10320;49.482;11.256;2024-02-16T13:22:36;4.40;;;3.97;;
20324;SDS011;10320;49.482;11.256;2024-02-16T13:25:03;5.13;;;3.57;;
20324;SDS011;10320;49.482;11.256;2024-02-16T13:27:29;5.20;;;3.77;;
20324;SDS011;10320;49.482;11.256;2024-02-16T13:29:55;4.63;;;3.73;;
20324;SDS011;10320;49.482;11.256;2024-02-16T13:32:21;4.10;;;3.70;;
20324;SDS011;10320;49.482;11.256;2024-02-16T13:34:47;6.03;;;3.50;;
20324;SDS011;10320;49.482;11.256;2024-02-16T13:37:13;4.20;;;3.80;;
20324;SDS011;10320;49.482;11.256;2024-02-16T13:39:39;3.97;;;3.60;;
20324;SDS011;10320;49.482;11.256;2024-02-16T13:42:05;4.80;;;3.60;;
20324;SDS011;10320;49.482;11.256;2024-02-16T13:44:31;4.27;;;3.87;;
20324;SDS011;10320;49.482;11.256;2024-02-16T13:46:57;3.70;;;3.23;;
20324;SDS011;10320;49.482;11.256;2024-02-16T13:49:23;5.13;;;3.70;;
20324;SDS011;10320;49.482;11.256;2024-02-16T13:51:49;4.07;;;3.67;;
20324;SDS011;10320;49.482;11.256;2024-02-16T13:54:15;4.57;;;3.23;;
20324;SDS011;10320;49.482;11.256;2024-02-16T13:56:42;3.90;;;3.50;;
20324;SDS011;10320;49.482;11.256;2024-02-16T13:59:08;3.63;;;2.90;;
20324;SDS011;10320;49.482;11.256;2024-02-16T14:01:34;5.47;;;3.20;;
20324;SDS011;10320;49.482;11.256;2024-02-16T14:04:01;4.67;;;3.23;;
20324;SDS011;10320;49.482;11.256;2024-02-16T14:06:28;4.00;;;3.30;;
20324;SDS011;10320;49.482;11.256;2024-02-16T14:08:56;3.40;;;3.10;;
20324;SDS011;10320;49.482;11.256;2024-02-16T14:11:22;4.57;;;3.23;;
20324;SDS011;10320;49.482;11.256;2024-02-16T14:13:48;3.80;;;3.40;;
20324;SDS011;10320;49.482;11.256;2024-02-16T14:16:15;3.93;;;3.23;;
20324;SDS011;10320;49.482;11.256;2024-02-16T14:18:41;4.57;;;3.53;;
20324;SDS011;10320;49.482;11.256;2024-02-16T14:21:08;4.87;;;3.47;;
20324;SDS011;10320;49.482;11.256;2024-02-16T14:23:34;3.73;;;3.37;;
20324;SDS011;10320;49.482;11.256;2024-02-16T14:26:00;4.20;;;3.70;;
20324;SDS011;10320;49.482;11.256;2024-02-16T14:28:26;4.13;;;3.40;;
20324;SDS011;10320;49.482;11.256;2024-02-16T14:30:52;5.50;;;3.67;;
20324;SDS011;10320;49.482;11.256;2024-02-16T14:33:18;4.67;;;4.07;;
20324;SDS011;10320;49.482;11.256;2024-02-16T14:35:45;5.07;;;3.73;;